createdAt,value
2022-10-01T00:01:03.046Z,87.93
2022-10-01T00:06:17.139Z,87.89
2022-10-01T00:11:22.057Z,88.01
2022-10-01T00:16:27.441Z,87.92
2022-10-01T00:21:31.831Z,87.84
2022-10-01T00:26:35.695Z,87.84
2022-10-01T00:31:38.968Z,87.70
2022-10-01T00:36:42.256Z,87.66
2022-10-01T00:41:44.754Z,87.75
2022-10-01T00:46:47.268Z,87.86
2022-10-01T00:51:52.345Z,88.05
2022-10-01T00:56:57.401Z,87.68
2022-10-01T01:01:59.836Z,87.52
2022-10-01T01:07:04.333Z,87.79
2022-10-01T01:12:09.654Z,88.33
2022-10-01T01:17:19.523Z,87.92
2022-10-01T01:22:24.957Z,88.04
2022-10-01T01:27:31.265Z,88.17
2022-10-01T01:32:34.615Z,88.42
2022-10-01T01:37:40.109Z,88.31
2022-10-01T01:42:44.047Z,88.27
2022-10-01T01:47:46.917Z,88.36
2022-10-01T01:52:49.312Z,88.47
2022-10-01T01:57:53.119Z,88.58
2022-10-01T02:02:57.086Z,88.74
2022-10-01T02:08:02.455Z,88.39
2022-10-01T02:13:08.190Z,88.39
2022-10-01T02:18:13.722Z,88.26
2022-10-01T02:23:23.746Z,87.73
2022-10-01T02:28:26.343Z,88.05
2022-10-01T02:33:30.810Z,88.27
2022-10-01T02:38:35.505Z,89.01
2022-10-01T02:43:43.104Z,89.05
2022-10-01T02:48:46.071Z,89.31
2022-10-01T02:53:52.719Z,89.12
2022-10-01T02:58:55.167Z,88.93
2022-10-01T03:03:57.559Z,89.14
2022-10-01T03:08:59.986Z,89.39
2022-10-01T03:14:04.173Z,89.56
2022-10-01T03:19:06.618Z,89.73
2022-10-01T03:24:09.199Z,89.69
2022-10-01T03:29:13.185Z,90.16
2022-10-01T03:34:15.602Z,90.41
2022-10-01T03:39:18.213Z,90.31
2022-10-01T03:44:20.643Z,90.33
2022-10-01T03:49:23.248Z,90.63
2022-10-01T03:54:26.305Z,90.44
2022-10-01T03:59:29.519Z,90.25
2022-10-01T04:04:32.089Z,90.30
2022-10-01T04:09:34.567Z,90.87
2022-10-01T04:14:36.992Z,90.66
2022-10-01T04:19:39.398Z,90.84
2022-10-01T04:24:41.900Z,90.77
2022-10-01T04:29:44.502Z,91.04
2022-10-01T04:34:49.838Z,91.46
2022-10-01T04:39:52.300Z,91.51
2022-10-01T04:44:54.720Z,91.05
2022-10-01T04:49:57.373Z,91.19
2022-10-01T04:54:59.764Z,91.56
2022-10-01T05:00:04.404Z,91.84
2022-10-01T05:05:07.511Z,91.75
2022-10-01T05:10:13.405Z,91.49
2022-10-01T05:15:16.776Z,91.54
2022-10-01T05:20:20.713Z,91.74
2022-10-01T05:25:23.454Z,91.52
2022-10-01T05:30:25.882Z,91.58
2022-10-01T05:35:28.799Z,92.11
2022-10-01T05:40:31.341Z,91.88
2022-10-01T05:45:33.895Z,91.81
2022-10-01T05:50:40.162Z,91.90
2022-10-01T05:55:42.953Z,91.96
2022-10-01T06:00:45.615Z,91.87
2022-10-01T06:12:27.103Z,91.26
2022-10-01T06:17:29.533Z,90.92
2022-10-01T06:22:31.951Z,90.77
2022-10-01T06:27:34.362Z,90.25
2022-10-01T06:32:36.760Z,90.33
2022-10-01T06:37:39.277Z,90.18
2022-10-01T06:42:46.956Z,90.10
2022-10-01T06:47:52.315Z,89.83
2022-10-01T06:52:54.826Z,89.14
2022-10-01T06:57:58.996Z,88.62
2022-10-01T07:03:02.046Z,88.32
2022-10-01T07:08:04.705Z,87.39
2022-10-01T07:13:08.531Z,86.56
2022-10-01T07:18:11.366Z,86.06
2022-10-01T07:23:14.668Z,85.33
2022-10-01T07:28:18.974Z,84.83
2022-10-01T07:33:21.478Z,82.13
2022-10-01T07:38:24.077Z,83.02
2022-10-01T07:43:26.562Z,83.05
2022-10-01T07:48:28.961Z,81.09
2022-10-01T07:53:31.693Z,80.94
2022-10-01T07:58:34.248Z,79.62
2022-10-01T08:03:36.637Z,77.97
2022-10-01T08:08:39.059Z,77.37
2022-10-01T08:13:41.467Z,76.79
2022-10-01T08:18:43.890Z,75.95
2022-10-01T08:23:46.394Z,75.75
2022-10-01T08:28:48.795Z,74.89
2022-10-01T08:33:51.440Z,74.37
2022-10-01T08:38:54.128Z,73.12
2022-10-01T08:43:58.980Z,72.23
2022-10-01T08:49:15.962Z,72.54
2022-10-01T08:54:21.625Z,70.27
2022-10-01T08:59:27.530Z,69.14
2022-10-01T09:04:30.167Z,67.54
2022-10-01T09:09:34.588Z,68.06
2022-10-01T09:14:39.951Z,67.97
2022-10-01T09:19:47.188Z,68.63
2022-10-01T09:24:53.948Z,66.76
2022-10-01T09:30:00.751Z,66.29
2022-10-01T09:35:07.751Z,65.43
2022-10-01T09:40:10.613Z,64.41
2022-10-01T09:45:15.051Z,64.00
2022-10-01T09:50:20.224Z,63.53
2022-10-01T09:55:28.181Z,63.40
2022-10-01T10:00:30.687Z,62.52
2022-10-01T10:05:36.025Z,62.09
2022-10-01T10:10:39.625Z,61.54
2022-10-01T10:15:49.515Z,60.42
2022-10-01T10:20:53.848Z,58.15
2022-10-01T10:26:07.369Z,58.56
2022-10-01T10:31:12.432Z,57.56
2022-10-01T10:36:15.988Z,57.03
2022-10-01T10:41:21.188Z,56.68
2022-10-01T10:46:29.303Z,57.01
2022-10-01T10:51:34.945Z,56.64
2022-10-01T10:56:38.346Z,57.19
2022-10-01T11:01:42.670Z,56.74
2022-10-01T11:06:53.621Z,55.87
2022-10-01T11:12:08.045Z,54.88
2022-10-01T11:17:20.202Z,54.53
2022-10-01T11:22:25.537Z,53.19
2022-10-01T11:27:29.722Z,53.13
2022-10-01T11:32:35.070Z,51.52
2022-10-01T11:37:45.123Z,52.24
2022-10-01T11:42:50.912Z,52.71
2022-10-01T11:47:58.296Z,52.15
2022-10-01T11:53:07.905Z,52.47
2022-10-01T11:58:16.174Z,52.48
2022-10-01T12:03:23.346Z,50.84
2022-10-01T12:08:31.766Z,50.52
2022-10-01T12:13:37.719Z,50.89
2022-10-01T12:18:40.270Z,50.53
2022-10-01T12:23:53.023Z,50.53
2022-10-01T12:29:01.335Z,51.15
2022-10-01T12:34:03.752Z,50.90
2022-10-01T12:39:14.628Z,49.86
2022-10-01T12:44:23.912Z,50.18
2022-10-01T12:49:46.576Z,50.24
2022-10-01T12:54:51.932Z,50.33
2022-10-01T12:59:59.171Z,50.37
2022-10-01T13:05:12.595Z,50.76
2022-10-01T13:10:18.249Z,50.63
2022-10-01T13:15:22.477Z,50.67
2022-10-01T13:20:27.826Z,51.25
2022-10-01T13:25:30.196Z,51.50
2022-10-01T13:30:41.328Z,51.90
2022-10-01T13:35:52.462Z,51.53
2022-10-01T13:40:58.325Z,50.18
2022-10-01T13:46:04.120Z,50.60
2022-10-01T13:51:09.119Z,50.94
2022-10-01T13:56:14.311Z,50.06
2022-10-01T14:01:21.374Z,49.23
2022-10-01T14:06:28.194Z,49.03
2022-10-01T14:11:35.613Z,48.74
2022-10-01T14:16:40.916Z,48.26
2022-10-01T14:21:51.890Z,49.17
2022-10-01T14:26:54.261Z,49.74
2022-10-01T14:31:58.650Z,50.67
2022-10-01T14:37:01.286Z,51.93
2022-10-01T14:42:14.254Z,53.04
2022-10-01T14:48:09.859Z,53.79
2022-10-01T14:53:16.456Z,54.51
2022-10-01T14:58:21.660Z,55.39
2022-10-01T15:03:24.131Z,56.32
2022-10-01T15:08:29.521Z,57.10
2022-10-01T15:13:35.286Z,58.01
2022-10-01T15:18:38.566Z,58.82
2022-10-01T15:23:41.392Z,59.74
2022-10-01T15:28:44.407Z,60.43
2022-10-01T15:33:47.052Z,60.94
2022-10-01T15:38:50.797Z,61.73
2022-10-01T15:43:53.349Z,62.57
2022-10-01T15:48:58.663Z,63.52
2022-10-01T15:54:04.656Z,64.29
2022-10-01T15:59:10.008Z,64.79
2022-10-01T16:04:14.233Z,65.77
2022-10-01T16:09:22.165Z,66.17
2022-10-01T16:14:27.560Z,67.19
2022-10-01T16:19:30.410Z,67.83
2022-10-01T16:24:41.049Z,68.03
2022-10-01T16:29:49.376Z,68.93
2022-10-01T16:34:52.271Z,69.31
2022-10-01T16:39:55.399Z,69.91
2022-10-01T16:44:57.806Z,70.58
2022-10-01T16:50:00.246Z,71.22
2022-10-01T16:55:02.960Z,71.90
2022-10-01T17:00:05.666Z,71.68
2022-10-01T17:05:15.370Z,72.44
2022-10-01T17:10:18.999Z,72.30
2022-10-01T17:15:23.220Z,72.43
2022-10-01T17:20:28.490Z,72.69
2022-10-01T17:25:34.199Z,72.85
2022-10-01T17:30:40.531Z,73.37
2022-10-01T17:35:44.051Z,73.93
2022-10-01T17:40:46.808Z,73.97
2022-10-01T17:45:55.252Z,73.98
2022-10-01T17:50:59.170Z,74.21
2022-10-01T17:56:04.580Z,74.72
2022-10-01T18:01:12.120Z,74.86
2022-10-01T18:06:15.975Z,74.57
2022-10-01T18:11:19.011Z,74.76
2022-10-01T18:16:22.031Z,74.95
2022-10-01T18:21:24.645Z,75.42
2022-10-01T18:26:27.349Z,75.47
2022-10-01T18:31:44.183Z,76.11
2022-10-01T18:36:48.623Z,76.47
2022-10-01T18:41:51.109Z,76.87
2022-10-01T18:46:58.670Z,76.71
2022-10-01T18:52:08.754Z,76.88
2022-10-01T18:57:14.313Z,76.93
2022-10-01T19:02:18.814Z,77.50
2022-10-01T19:07:22.705Z,77.31
2022-10-01T19:12:28.076Z,77.65
2022-10-01T19:17:30.637Z,77.88
2022-10-01T19:22:43.987Z,77.76
2022-10-01T19:27:49.406Z,78.24
2022-10-01T19:32:55.006Z,78.33
2022-10-01T19:38:02.966Z,78.56
2022-10-01T19:43:16.002Z,78.87
2022-10-01T19:48:38.626Z,78.88
2022-10-01T19:53:44.095Z,79.04
2022-10-01T19:58:47.025Z,79.07
2022-10-01T20:03:53.128Z,79.55
2022-10-01T20:08:59.355Z,79.79
2022-10-01T20:14:10.085Z,80.22
2022-10-01T20:19:20.241Z,80.86
2022-10-01T20:24:28.756Z,80.79
2022-10-01T20:29:34.685Z,81.63
2022-10-01T20:34:43.913Z,82.17
2022-10-01T20:39:51.529Z,83.04
2022-10-01T20:44:53.986Z,83.50
2022-10-01T20:50:05.777Z,83.47
2022-10-01T20:55:15.703Z,84.01
2022-10-01T21:00:19.480Z,84.51
2022-10-01T21:05:25.487Z,84.29
2022-10-01T21:10:36.246Z,84.02
2022-10-01T21:15:41.727Z,83.79
2022-10-01T21:20:47.611Z,84.40
2022-10-01T21:26:24.546Z,84.22
2022-10-01T21:31:29.933Z,84.77
2022-10-01T21:36:34.656Z,84.37
2022-10-01T21:41:38.264Z,83.86
2022-10-01T21:47:01.099Z,83.73
2022-10-01T21:52:11.064Z,84.46
2022-10-01T21:57:22.253Z,84.41
2022-10-01T22:02:26.273Z,84.46
2022-10-01T22:07:31.656Z,84.57
2022-10-01T22:12:36.810Z,84.71
2022-10-01T22:17:39.515Z,85.26
2022-10-01T22:22:42.738Z,85.36
2022-10-01T22:27:48.142Z,85.46
2022-10-01T22:32:54.926Z,85.72
2022-10-01T22:38:02.030Z,85.84
2022-10-01T22:43:08.206Z,86.22
2022-10-01T22:48:19.363Z,86.30
2022-10-01T22:53:24.732Z,86.43
2022-10-01T22:58:27.081Z,86.60
2022-10-01T23:03:37.198Z,86.97
2022-10-01T23:08:46.810Z,87.36
2022-10-01T23:13:49.145Z,87.22
2022-10-01T23:18:54.788Z,87.21
2022-10-01T23:24:07.771Z,87.33
2022-10-01T23:29:13.102Z,87.66
2022-10-01T23:34:23.995Z,88.03
2022-10-01T23:39:36.981Z,88.02
2022-10-01T23:44:47.807Z,88.50
2022-10-01T23:49:53.034Z,88.52
2022-10-01T23:55:17.978Z,88.74
